Meath Environmental Platform

Observations for Trim Market St

Time AQI Temp °C Hum % Pres Pa CO μg/m³ H₂S μg/m³ NO μg/m³ NO₂ μg/m³ O₃ μg/m³ SO₂ μg/m³ PM1 μg/m³ PM2.5 μg/m³ PM10 μg/m³
Sunday 12 July 2026
03:24 1 18.4 79 2,147,483,647 0.08 0 0 4.53 16.76 0 7.84 9.26 13.84
03:20 1 18.4 79 2,147,483,647 0.08 0 0.15 4.86 15.11 0 7.84 9.28 13.86
03:18 1 18.4 78 2,147,483,647 0.07 0 0 4.07 12.98 0 8.55 9.29 13.29
03:14 1 18.4 78 1,398 0.07 0 0 3.28 12.02 0 8.55 11.19 16.18
03:10 1 18.4 78 3,977 0.07 0 0 4.81 13.91 0 7.13 8.83 13.31
03:09 1 18.5 78 4,745 0.07 0 0 4.29 13.97 0 9.26 9.32 13.9
03:08 1 18.4 78 5,386 0.07 0 0 3.72 12.92 0 9.26 10.74 15.63
03:07 1 18.4 78 5,958 0.08 0 0 4.02 12.52 0 8.55 9.79 14.48
03:06 1 18.4 78 6,810 0.08 0 0 5.53 12.36 0 9.26 11.22 16.8
03:05 1 18.4 78 7,639 0.09 0 0 2.44 11.47 0 9.26 11.7 16.81
03:04 1 18.4 78 8,381 0.08 0 0 6.44 13.31 0 8.55 9.8 15.65
03:03 1 18.5 78 9,299 0.07 0 0 4.31 12.71 0 7.84 10.75 16.23
03:02 1 18.5 78 9,973 0.07 0 0 4.23 12 0 7.84 10.29 14.5
03:01 1 18.4 78 10,654 0.07 0 0 3.15 13.12 0 8.55 10.76 15.08
03:00 1 18.5 78 11,358 0.07 0 0 5.54 14.46 0 9.26 9.82 15.08
02:59 1 18.4 78 12,187 0.06 0 0 3.06 11.45 0 8.55 11.72 16.25
02:58 1 18.5 78 12,858 0.06 0 0 5.45 14.07 0 8.55 9.82 13.93
02:57 1 18.5 78 13,663 0.06 0 0 2.55 17.4 0 7.84 10.77 16.26
02:54 1 18.5 78 14,534 0.07 0 0 4.36 17.8 0 9.26 10.78 15.1
02:53 1 18.5 77 15,347 0.05 0 0 3.97 13.42 0 7.84 9.36 13.36